Aérodrome :
LOGIN :

S'inscrire | Disclaimer

   EN    FR    IT 

 










Légende :    VFR   VFR Marginal   IFR   IFR Intensif   IFR Très Intensif
Visi : 
Plafond : 
>= 8 km
>= 3000ft
5 à 8 km
1000 à 3000 ft
1500m à 5 km
500 à 1000 ft
800 à 1500m
200 à 500 ft
< 800m
< 200 ft
Symboles :   Orages  Brouillard  Fortes neiges  Fortes précipitations  Vent > 20 kt
SIGMETs :   Divers  Orages  Givrage  Turbulence  Onde Orograph.  Cendres Volcan.






- Altitude de l'aérodrome : -15 ft
- Code IATA : RTM


EHRD - Rotterdam Zestienhoven

DERNIER METAR :
  • 070955Z AUTO 29009KT 250V330 9999 FEW031 SCT037 10/03 Q1015 NOSIG

METARs EXPIRÉS :
  • 070925Z AUTO 28010KT 240V320 9999 SCT029 SCT034 BKN042 09/03 Q1014 NOSIG
  • 070855Z AUTO 28010KT 250V320 9999 FEW028 SCT033 BKN046 08/03 Q1014 NOSIG
  • 070825Z AUTO 29009KT 230V330 9999 FEW028 SCT033 08/03 Q1013 NOSIG
  • 070755Z AUTO 29008KT 250V340 9999 SCT025 SCT036 09/04 Q1013 NOSIG
  • 070725Z AUTO 28008KT 250V330 9999 FEW019 SCT023 BKN033 08/03 Q1012 NOSIG

TAF COR TAF EHRD
Valide du 07 à 06h jusqu'au 08 à 12h UTC


070435Z 0706/0812 VRB03KT 9999 SCT025
BECMG 0706/0708 28009KT
BECMG 0709/0712 28014KT
BECMG 0717/0720 VRB03KT
BECMG 0800/0803 16008KT
BECMG 0809/0812 16014KT -RA



MET'MAP, la Météo Aéronautique d'un coup d'oeil ! - Copyright ORBIFLY Décembre 2007 - Disclaimer

ORBIFLY MET'MAP TEAM :

Programmation & Développement : Alexandra Zaïnal
Sur une idée originale de : Baudouin d'Aumeries
Assistance à la programmation : Marc-Olivier Méhu
Soutien technique & logistique : Manuel Goepfert

Contact : metmap@orbifly.com




SOURCES & CREDITS :

   NOAA